createdAt,value
2023-03-12T12:24:04.573Z,7.52
2023-03-12T12:25:24.957Z,7.97
2023-03-12T12:26:49.745Z,11.63
2023-03-12T12:28:00.102Z,12.37
2023-03-12T12:29:17.216Z,8.45
2023-03-12T12:30:34.452Z,8.15
2023-03-12T12:32:20.964Z,27.42
2023-03-12T12:33:49.863Z,8.55
2023-03-12T12:35:03.410Z,8.30
2023-03-12T12:36:08.082Z,8.07
2023-03-12T12:37:39.954Z,12.45
2023-03-12T12:38:41.536Z,10.83
2023-03-12T12:40:00.050Z,17.43
2023-03-12T12:41:11.493Z,7.98
2023-03-12T12:42:22.930Z,8.17
2023-03-12T12:43:32.923Z,8.47
2023-03-12T12:44:43.350Z,7.87
2023-03-12T12:45:48.503Z,8.42
2023-03-12T12:46:56.552Z,8.65
2023-03-12T12:48:08.190Z,8.22
2023-03-12T12:49:14.886Z,11.07
2023-03-12T12:50:24.817Z,8.18
2023-03-12T12:51:36.394Z,8.53
2023-03-12T12:52:38.510Z,22.17
2023-03-12T12:53:57.271Z,33.47
2023-03-12T12:55:35.267Z,23.55
2023-03-12T12:56:51.000Z,13.48
2023-03-12T12:58:02.484Z,24.83
2023-03-12T12:59:37.727Z,31.07
2023-03-12T13:00:48.049Z,25.70
2023-03-12T13:01:54.274Z,16.58
2023-03-12T13:02:57.786Z,22.05
2023-03-12T13:04:09.541Z,38.12
2023-03-12T13:05:37.457Z,29.10
2023-03-12T13:06:57.768Z,34.18
2023-03-12T13:07:59.410Z,16.53
2023-03-12T13:09:14.389Z,11.27
2023-03-12T13:10:36.129Z,15.20
2023-03-12T13:11:45.297Z,9.15
2023-03-12T13:12:52.709Z,9.50
2023-03-12T13:14:03.388Z,10.97
2023-03-12T13:15:30.860Z,15.87
2023-03-12T13:16:36.960Z,17.15
2023-03-12T13:18:23.589Z,19.38
2023-03-12T13:19:27.531Z,16.77
2023-03-12T13:20:37.856Z,28.00
2023-03-12T13:21:46.445Z,30.65
2023-03-12T13:23:29.992Z,9.52
2023-03-12T13:24:31.594Z,11.87
2023-03-12T13:26:06.387Z,8.08
2023-03-12T13:27:29.843Z,8.50
2023-03-12T13:28:35.202Z,9.15
2023-03-12T13:29:40.591Z,9.20
2023-03-12T13:30:47.500Z,13.70
2023-03-12T13:31:49.362Z,21.18
2023-03-12T13:32:50.981Z,18.02
2023-03-12T13:34:08.026Z,12.03
2023-03-12T13:35:15.700Z,14.47
2023-03-12T13:36:17.311Z,12.20
2023-03-12T13:37:28.103Z,9.67
2023-03-12T13:38:51.934Z,16.13
2023-03-12T13:39:53.658Z,10.33
2023-03-12T13:40:59.167Z,10.72
2023-03-12T13:42:21.572Z,11.47
2023-03-12T13:43:38.170Z,10.48
2023-03-12T13:44:40.283Z,11.72
2023-03-12T13:45:47.795Z,7.97
2023-03-12T13:47:12.129Z,12.15
2023-03-12T13:48:20.795Z,11.07
2023-03-12T13:49:24.120Z,9.22
2023-03-12T13:50:27.774Z,8.55
2023-03-12T13:51:29.761Z,9.37
2023-03-12T13:52:54.448Z,10.43
2023-03-12T13:54:01.266Z,12.52
2023-03-12T13:55:15.067Z,8.57
2023-03-12T13:56:21.244Z,11.72
2023-03-12T13:57:33.946Z,8.45
2023-03-12T13:58:50.311Z,11.67
2023-03-12T13:59:53.106Z,14.75
2023-03-12T14:01:07.484Z,7.40
2023-03-12T14:02:24.877Z,9.63
2023-03-12T14:03:56.811Z,15.95
2023-03-12T14:05:09.144Z,23.00
2023-03-12T14:06:14.604Z,9.35
2023-03-12T14:08:20.408Z,9.02
2023-03-12T14:09:45.774Z,6.05
2023-03-12T14:11:07.912Z,6.75
2023-03-12T14:12:20.651Z,5.87
2023-03-12T14:13:34.460Z,5.05
2023-03-12T14:14:44.945Z,5.45
2023-03-12T14:16:16.798Z,5.42
2023-03-12T14:17:23.620Z,4.90
2023-03-12T14:18:30.100Z,5.05
2023-03-12T14:19:35.250Z,6.07
2023-03-12T14:20:38.741Z,7.02
2023-03-12T14:21:44.493Z,11.20
2023-03-12T14:22:54.176Z,21.90
2023-03-12T14:23:58.360Z,16.75
2023-03-12T14:25:12.620Z,14.62
2023-03-12T14:26:31.874Z,5.72
2023-03-12T14:27:34.227Z,5.22
2023-03-12T14:28:41.346Z,4.35
2023-03-12T14:29:55.626Z,4.62
2023-03-12T14:31:13.087Z,4.42
2023-03-12T14:32:20.556Z,5.32
2023-03-12T14:33:24.613Z,5.53
2023-03-12T14:34:30.524Z,7.02
2023-03-12T14:36:01.869Z,6.05
2023-03-12T14:37:37.108Z,4.63
2023-03-12T14:38:44.568Z,4.48
2023-03-12T14:40:01.878Z,4.58
2023-03-12T14:41:18.301Z,4.27
2023-03-12T14:42:31.571Z,6.47
2023-03-12T14:43:35.101Z,14.95
2023-03-12T14:44:38.862Z,8.23
2023-03-12T14:45:40.709Z,4.85
2023-03-12T14:46:55.083Z,4.38
2023-03-12T14:47:58.399Z,4.50
2023-03-12T14:49:00.004Z,4.18
2023-03-12T14:50:01.664Z,3.97
2023-03-12T14:51:06.298Z,4.12
2023-03-12T14:52:12.197Z,3.98
2023-03-12T14:53:21.522Z,4.10
2023-03-12T14:54:26.365Z,4.18
2023-03-12T14:55:28.027Z,4.28
2023-03-12T14:56:32.200Z,4.82
2023-03-12T14:57:34.676Z,7.18
2023-03-12T14:58:44.198Z,6.30
2023-03-12T14:59:55.878Z,5.18
2023-03-12T15:01:04.748Z,3.38
2023-03-12T15:02:15.368Z,3.42
2023-03-12T15:03:17.785Z,3.38
2023-03-12T15:04:23.919Z,3.83
2023-03-12T15:05:25.654Z,3.93
2023-03-12T15:06:45.704Z,4.75
2023-03-12T15:07:50.181Z,19.63
2023-03-12T15:08:51.839Z,10.73
2023-03-12T15:09:54.074Z,5.48
2023-03-12T15:10:58.903Z,4.63
2023-03-12T15:12:17.119Z,4.62
2023-03-12T15:13:20.635Z,4.72
2023-03-12T15:14:24.781Z,4.32
2023-03-12T15:15:48.058Z,4.92
2023-03-12T15:16:51.178Z,5.07
2023-03-12T15:17:53.123Z,3.80
2023-03-12T15:18:55.706Z,3.38
2023-03-12T15:19:58.232Z,3.77
2023-03-12T15:21:02.522Z,3.93
2023-03-12T15:22:04.611Z,3.95
2023-03-12T15:23:09.868Z,3.35
2023-03-12T15:24:13.909Z,2.80
2023-03-12T15:25:29.635Z,2.60
2023-03-12T15:26:34.094Z,2.90
2023-03-12T15:27:35.691Z,2.82
2023-03-12T15:28:37.761Z,3.23
2023-03-12T15:29:41.704Z,2.70
2023-03-12T15:30:44.028Z,2.77
2023-03-12T15:31:48.358Z,3.10
2023-03-12T15:33:11.036Z,3.08
2023-03-12T15:34:26.456Z,4.02
2023-03-12T15:35:28.372Z,6.18
2023-03-12T15:36:32.781Z,5.50
2023-03-12T15:37:35.654Z,5.28
2023-03-12T15:38:37.237Z,4.68
2023-03-12T15:39:38.997Z,3.83
2023-03-12T15:40:40.872Z,3.12
2023-03-12T15:41:46.553Z,2.95
2023-03-12T15:42:49.433Z,2.92
2023-03-12T15:43:59.673Z,3.07
2023-03-12T15:45:02.820Z,3.40
2023-03-12T15:46:06.893Z,4.00
2023-03-12T15:47:18.374Z,4.30
2023-03-12T15:48:31.986Z,5.15
2023-03-12T15:49:37.675Z,5.80
2023-03-12T15:50:44.294Z,5.53
2023-03-12T15:52:02.941Z,5.48
2023-03-12T15:53:13.660Z,5.38
2023-03-12T15:54:18.374Z,5.33
2023-03-12T15:55:27.036Z,5.08
2023-03-12T15:56:31.694Z,5.70
2023-03-12T15:57:35.274Z,4.73
2023-03-12T15:58:39.560Z,4.47
2023-03-12T15:59:41.233Z,4.22
2023-03-12T16:00:46.147Z,3.92
2023-03-12T16:01:50.704Z,3.62
2023-03-12T16:02:58.556Z,3.53
2023-03-12T16:04:00.325Z,3.80
2023-03-12T16:05:01.979Z,3.95
2023-03-12T16:06:04.082Z,3.98
2023-03-12T16:07:12.145Z,3.82
2023-03-12T16:08:16.398Z,3.57
2023-03-12T16:09:25.084Z,3.43
2023-03-12T16:10:27.433Z,3.32
2023-03-12T16:11:31.853Z,3.63
2023-03-12T16:12:34.042Z,3.95
2023-03-12T16:13:35.744Z,3.75
2023-03-12T16:14:38.164Z,3.75
2023-03-12T16:15:40.423Z,3.90
2023-03-12T16:16:42.143Z,3.57
2023-03-12T16:17:43.995Z,4.15
2023-03-12T16:18:45.640Z,4.52
2023-03-12T16:19:47.453Z,4.37
2023-03-12T16:20:51.284Z,4.47
2023-03-12T16:21:52.942Z,4.58
2023-03-12T16:22:55.064Z,4.52
2023-03-12T16:23:56.634Z,4.18
2023-03-12T16:24:58.200Z,3.75
2023-03-12T16:26:00.332Z,4.72
2023-03-12T16:27:02.643Z,5.87
2023-03-12T16:28:06.394Z,6.15
2023-03-12T16:29:14.333Z,6.40
2023-03-12T16:30:24.762Z,7.70
2023-03-12T16:31:26.512Z,10.12
2023-03-12T16:32:28.249Z,11.30
2023-03-12T16:33:29.830Z,12.38
2023-03-12T16:34:31.473Z,13.60
2023-03-12T16:35:33.702Z,14.17
2023-03-12T16:36:35.317Z,19.83
2023-03-12T16:37:36.910Z,29.45
2023-03-12T16:38:38.533Z,15.87
2023-03-12T16:39:40.570Z,13.12
2023-03-12T16:40:51.236Z,18.58
2023-03-12T16:41:52.873Z,21.85
2023-03-12T16:42:54.822Z,19.87
2023-03-12T16:43:56.839Z,21.02
2023-03-12T16:44:58.890Z,24.83
2023-03-12T16:46:00.796Z,29.20
2023-03-12T16:47:02.598Z,31.28
2023-03-12T16:48:06.445Z,24.10
2023-03-12T16:49:14.540Z,18.58
2023-03-12T16:50:22.314Z,15.75
2023-03-12T16:51:24.569Z,16.02
2023-03-12T16:52:26.237Z,16.92
2023-03-12T16:53:28.166Z,16.72
2023-03-12T16:54:29.780Z,16.15
2023-03-12T16:55:44.269Z,11.90
2023-03-12T16:56:48.390Z,9.63
2023-03-12T16:57:56.650Z,8.98
2023-03-12T16:59:05.286Z,7.52
2023-03-12T17:00:12.029Z,7.13
2023-03-12T17:01:16.431Z,7.27
2023-03-12T17:02:19.104Z,7.58
2023-03-12T17:03:41.883Z,8.68
2023-03-12T17:04:43.797Z,9.40
2023-03-12T17:05:45.520Z,11.45
2023-03-12T17:06:47.239Z,11.25
2023-03-12T17:07:48.875Z,13.33
2023-03-12T17:08:52.124Z,14.38
2023-03-12T17:09:53.749Z,15.03
2023-03-12T17:10:57.445Z,16.82
2023-03-12T17:11:59.145Z,19.72
2023-03-12T17:13:00.852Z,20.65
2023-03-12T17:14:10.265Z,19.65
2023-03-12T17:15:26.245Z,17.32
2023-03-12T17:16:28.339Z,17.02
2023-03-12T17:17:30.397Z,20.43
2023-03-12T17:18:31.999Z,21.28
2023-03-12T17:19:33.637Z,21.58
2023-03-12T17:20:35.264Z,22.62
2023-03-12T17:21:37.102Z,22.87
2023-03-12T17:22:38.730Z,22.57
2023-03-12T17:23:40.627Z,20.97
2023-03-12T17:24:42.293Z,20.35
2023-03-12T17:25:44.902Z,20.38
2023-03-12T17:26:46.727Z,18.15
2023-03-12T17:27:48.314Z,17.38
2023-03-12T17:28:50.031Z,16.68
2023-03-12T17:29:51.649Z,15.08
2023-03-12T17:30:53.423Z,16.07
2023-03-12T17:31:55.210Z,14.72
2023-03-12T17:33:15.241Z,14.43
2023-03-12T17:34:16.858Z,14.07
2023-03-12T17:35:20.252Z,12.95
2023-03-12T17:36:21.952Z,12.53
2023-03-12T17:37:23.627Z,12.02
2023-03-12T17:38:25.778Z,11.52
2023-03-12T17:39:27.430Z,11.73
2023-03-12T17:40:29.798Z,12.17
2023-03-12T17:41:32.294Z,10.97
2023-03-12T17:42:35.842Z,11.97
2023-03-12T17:43:37.485Z,12.25
2023-03-12T17:44:39.130Z,12.95
2023-03-12T17:45:40.760Z,13.27
2023-03-12T17:46:56.652Z,15.32
2023-03-12T17:48:00.491Z,17.22
2023-03-12T17:49:02.089Z,18.33
2023-03-12T17:50:05.967Z,19.40
2023-03-12T17:51:11.330Z,20.70
2023-03-12T17:52:12.984Z,21.75
2023-03-12T17:53:14.976Z,22.28
2023-03-12T17:54:17.017Z,21.98
2023-03-12T17:55:18.631Z,20.63
2023-03-12T17:56:20.280Z,22.02
2023-03-12T17:57:21.923Z,23.17
2023-03-12T17:58:23.616Z,26.62
2023-03-12T17:59:25.291Z,27.78
2023-03-12T18:00:26.902Z,28.93
2023-03-12T18:01:28.466Z,28.72
2023-03-12T18:02:30.076Z,29.52
2023-03-12T18:03:35.960Z,27.80
2023-03-12T18:04:37.787Z,25.28
2023-03-12T18:05:39.450Z,24.67
2023-03-12T18:06:41.099Z,25.10
2023-03-12T18:07:42.797Z,22.95
2023-03-12T18:08:44.360Z,21.08
2023-03-12T18:09:45.971Z,19.92
2023-03-12T18:10:48.426Z,18.40
2023-03-12T18:11:50.063Z,18.40
2023-03-12T18:12:51.713Z,18.18
2023-03-12T18:13:53.410Z,18.17
2023-03-12T18:14:54.999Z,19.68
2023-03-12T18:15:58.337Z,20.15
2023-03-12T18:17:00.075Z,20.97
2023-03-12T18:18:01.704Z,21.27
2023-03-12T18:19:03.632Z,20.87
2023-03-12T18:20:06.049Z,21.07
2023-03-12T18:21:07.774Z,21.48
2023-03-12T18:22:09.698Z,21.17
2023-03-12T18:23:11.314Z,22.00
2023-03-12T18:24:14.421Z,20.63
2023-03-12T18:25:16.583Z,20.93
2023-03-12T18:26:18.238Z,19.58
2023-03-12T18:27:19.861Z,17.35
2023-03-12T18:28:21.708Z,16.92
2023-03-12T18:29:23.286Z,15.53
2023-03-12T18:30:24.934Z,16.48
2023-03-12T18:31:26.960Z,17.02
2023-03-12T18:32:29.161Z,15.33
2023-03-12T18:33:30.856Z,14.02
2023-03-12T18:34:32.615Z,13.95
2023-03-12T18:35:34.330Z,12.82
2023-03-12T18:36:35.973Z,12.00
2023-03-12T18:37:37.582Z,12.13
2023-03-12T18:38:39.218Z,11.57
2023-03-12T18:39:40.846Z,11.50
2023-03-12T18:40:42.498Z,12.15
2023-03-12T18:41:44.189Z,12.85
2023-03-12T18:42:45.949Z,13.77
2023-03-12T18:43:47.565Z,14.85
2023-03-12T18:44:49.141Z,14.53
2023-03-12T18:45:50.779Z,15.52
2023-03-12T18:46:52.480Z,14.85
2023-03-12T18:47:54.273Z,16.10
2023-03-12T18:48:55.885Z,17.13
2023-03-12T18:49:57.470Z,16.45
2023-03-12T18:50:59.089Z,16.93
2023-03-12T18:52:00.688Z,17.02
2023-03-12T18:53:02.345Z,18.97
2023-03-12T18:54:04.142Z,18.15
2023-03-12T18:55:05.963Z,18.17
2023-03-12T18:56:07.968Z,17.38
2023-03-12T18:57:09.638Z,19.35
2023-03-12T18:58:11.296Z,18.87
2023-03-12T18:59:13.166Z,21.03
2023-03-12T19:00:16.806Z,23.28
2023-03-12T19:01:18.486Z,22.67
2023-03-12T19:02:20.229Z,21.32
2023-03-12T19:03:22.987Z,19.87
2023-03-12T19:04:24.822Z,17.60
2023-03-12T19:05:26.432Z,15.30
2023-03-12T19:06:29.661Z,14.18
2023-03-12T19:07:36.579Z,11.58
2023-03-12T19:08:40.463Z,10.87
2023-03-12T19:09:42.144Z,9.37
2023-03-12T19:10:44.087Z,9.13
2023-03-12T19:11:49.487Z,8.38
2023-03-12T19:12:53.696Z,8.33
2023-03-12T19:13:55.429Z,8.75
2023-03-12T19:14:57.074Z,7.90
2023-03-12T19:16:00.892Z,7.83
2023-03-12T19:17:02.684Z,7.98
2023-03-12T19:18:04.555Z,9.73
2023-03-12T19:19:06.109Z,8.88
2023-03-12T19:20:08.162Z,9.23
2023-03-12T19:21:09.944Z,8.97
2023-03-12T19:22:11.609Z,9.32
2023-03-12T19:23:13.330Z,15.72
2023-03-12T19:24:14.940Z,30.43
2023-03-12T19:25:16.678Z,29.70
2023-03-12T19:26:18.254Z,25.25
2023-03-12T19:27:19.836Z,17.37
2023-03-12T19:28:21.809Z,13.30
2023-03-12T19:29:23.398Z,12.93
2023-03-12T19:30:25.067Z,13.35
2023-03-12T19:31:26.796Z,14.17
2023-03-12T19:32:40.671Z,14.40
2023-03-12T19:33:44.827Z,12.90
2023-03-12T19:34:46.433Z,12.57
2023-03-12T19:35:48.145Z,12.73
2023-03-12T19:36:49.754Z,12.88
2023-03-12T19:37:51.578Z,13.18
2023-03-12T19:38:53.256Z,13.68
2023-03-12T19:39:54.863Z,13.53
2023-03-12T19:40:58.307Z,19.07
2023-03-12T19:41:59.923Z,22.73
2023-03-12T19:43:02.309Z,20.97
2023-03-12T19:44:04.060Z,17.27
2023-03-12T19:45:06.230Z,17.97
2023-03-12T19:46:08.089Z,19.52
2023-03-12T19:47:09.804Z,22.15
2023-03-12T19:48:13.067Z,22.20
2023-03-12T19:49:14.824Z,20.30
2023-03-12T19:50:16.498Z,17.88
2023-03-12T19:51:18.101Z,17.73
2023-03-12T19:52:19.716Z,18.02
2023-03-12T19:53:21.938Z,17.80
2023-03-12T19:54:23.670Z,18.03
2023-03-12T19:55:25.358Z,19.52
2023-03-12T19:56:26.937Z,20.22
2023-03-12T19:57:28.657Z,20.58
2023-03-12T19:58:30.488Z,22.23
2023-03-12T19:59:32.201Z,26.73
2023-03-12T20:00:33.952Z,30.70
2023-03-12T20:01:35.599Z,35.23
2023-03-12T20:02:37.766Z,36.87
2023-03-12T20:03:40.803Z,41.20
2023-03-12T20:04:43.988Z,43.00
2023-03-12T20:05:45.924Z,40.47
2023-03-12T20:06:47.627Z,36.35
2023-03-12T20:07:49.208Z,35.30
2023-03-12T20:08:50.827Z,34.15
2023-03-12T20:09:52.703Z,35.42
2023-03-12T20:11:01.712Z,33.30
2023-03-12T20:12:03.417Z,32.05
2023-03-12T20:13:05.192Z,29.42
2023-03-12T20:14:06.775Z,26.25
2023-03-12T20:15:09.095Z,22.85
2023-03-12T20:16:10.700Z,21.57
2023-03-12T20:17:12.476Z,19.38
2023-03-12T20:18:15.050Z,19.27
2023-03-12T20:19:16.779Z,18.97
2023-03-12T20:20:18.685Z,19.70
2023-03-12T20:21:20.239Z,21.65
2023-03-12T20:22:23.121Z,39.73
2023-03-12T20:23:24.845Z,43.02
2023-03-12T20:24:26.423Z,46.10
2023-03-12T20:25:28.134Z,45.97
2023-03-12T20:26:29.819Z,43.58
2023-03-12T20:27:32.283Z,45.92
2023-03-12T20:28:33.966Z,49.97
2023-03-12T20:29:35.632Z,51.40
2023-03-12T20:30:38.353Z,54.65
2023-03-12T20:31:42.548Z,54.92
2023-03-12T20:32:44.307Z,55.37
2023-03-12T20:33:45.904Z,53.92
2023-03-12T20:34:47.485Z,55.85
2023-03-12T20:35:50.397Z,55.12
2023-03-12T20:36:52.175Z,56.78
2023-03-12T20:37:53.759Z,55.63
2023-03-12T20:38:55.314Z,53.45
2023-03-12T20:39:56.969Z,52.43
2023-03-12T20:40:59.935Z,49.12
2023-03-12T20:42:01.611Z,44.92
2023-03-12T20:43:04.292Z,44.52
2023-03-12T20:44:05.957Z,43.75
2023-03-12T20:45:08.092Z,43.45
2023-03-12T20:46:10.309Z,44.12
2023-03-12T20:47:11.968Z,44.00
2023-03-12T20:48:13.609Z,43.78
2023-03-12T20:49:15.228Z,44.77
2023-03-12T20:50:16.910Z,44.60
2023-03-12T20:51:18.574Z,45.73
2023-03-12T20:52:20.248Z,43.12
2023-03-12T20:53:21.902Z,54.03
2023-03-12T20:54:23.503Z,141.97
2023-03-12T20:55:25.105Z,77.45
2023-03-12T20:56:26.897Z,57.60
2023-03-12T20:57:28.683Z,54.02
2023-03-12T20:58:30.243Z,56.77
2023-03-12T20:59:31.822Z,53.05
2023-03-12T21:00:33.512Z,45.90
2023-03-12T21:01:35.346Z,35.93
2023-03-12T21:02:37.066Z,35.95
2023-03-12T21:03:38.780Z,43.42
2023-03-12T21:04:41.323Z,52.80
2023-03-12T21:05:42.962Z,50.85
2023-03-12T21:06:44.671Z,50.55
2023-03-12T21:07:46.309Z,50.97
2023-03-12T21:08:48.132Z,50.60
2023-03-12T21:09:49.866Z,50.73
2023-03-12T21:10:52.042Z,50.97
2023-03-12T21:11:53.606Z,51.18
2023-03-12T21:12:55.208Z,55.25
2023-03-12T21:13:56.961Z,59.92
2023-03-12T21:14:58.564Z,60.10
2023-03-12T21:16:00.171Z,60.65
2023-03-12T21:17:01.845Z,65.50
2023-03-12T21:18:03.574Z,72.03
2023-03-12T21:19:05.554Z,74.85
2023-03-12T21:20:09.984Z,71.65
2023-03-12T21:21:11.577Z,70.75
2023-03-12T21:22:13.192Z,67.30
2023-03-12T21:23:14.849Z,62.45
2023-03-12T21:24:16.553Z,60.08
2023-03-12T21:25:18.398Z,57.83
2023-03-12T21:26:20.052Z,53.65
2023-03-12T21:27:21.670Z,50.83
2023-03-12T21:28:23.253Z,50.28
2023-03-12T21:29:24.818Z,51.23
2023-03-12T21:30:26.526Z,51.95
2023-03-12T21:31:28.098Z,52.25
2023-03-12T21:32:29.701Z,54.48
2023-03-12T21:33:31.366Z,52.98
2023-03-12T21:34:32.996Z,51.05
2023-03-12T21:35:34.807Z,47.68
2023-03-12T21:36:36.425Z,45.22
2023-03-12T21:37:38.015Z,44.55
2023-03-12T21:38:40.769Z,43.52
2023-03-12T21:39:42.804Z,40.78
2023-03-12T21:40:44.616Z,38.48
2023-03-12T21:41:46.185Z,37.90
2023-03-12T21:42:47.813Z,37.03
2023-03-12T21:43:49.472Z,38.68
2023-03-12T21:44:51.158Z,36.38
2023-03-12T21:45:52.903Z,34.52
2023-03-12T21:46:54.488Z,33.60
2023-03-12T21:47:56.095Z,30.97
2023-03-12T21:48:58.090Z,29.38
2023-03-12T21:49:59.786Z,28.10
2023-03-12T21:51:06.857Z,28.77
2023-03-12T21:52:08.457Z,29.92
2023-03-12T21:53:22.753Z,30.47
2023-03-12T21:54:30.530Z,28.00
2023-03-12T21:55:32.120Z,32.78
2023-03-12T21:56:33.790Z,40.32
2023-03-12T21:57:35.429Z,49.60
2023-03-12T21:58:37.734Z,49.12
2023-03-12T21:59:39.351Z,48.00
2023-03-12T22:00:40.950Z,41.75
2023-03-12T22:01:42.547Z,34.27
2023-03-12T22:02:45.834Z,33.48
2023-03-12T22:03:47.526Z,34.73
2023-03-12T22:04:49.783Z,36.22
2023-03-12T22:05:51.418Z,38.37
2023-03-12T22:06:53.249Z,39.87
2023-03-12T22:07:54.855Z,41.10
2023-03-12T22:08:56.430Z,39.12
2023-03-12T22:09:58.094Z,40.20
2023-03-12T22:11:00.088Z,39.92
2023-03-12T22:12:04.364Z,39.88
2023-03-12T22:13:06.056Z,39.20
2023-03-12T22:14:07.945Z,38.98
2023-03-12T22:15:09.993Z,36.80
2023-03-12T22:16:13.679Z,36.57
2023-03-12T22:17:15.304Z,35.52
2023-03-12T22:18:16.860Z,32.85
2023-03-12T22:19:18.450Z,31.95
2023-03-12T22:20:20.114Z,31.95
2023-03-12T22:21:23.546Z,31.82
2023-03-12T22:22:25.178Z,33.33
2023-03-12T22:23:27.590Z,33.38
2023-03-12T22:24:29.264Z,36.52
2023-03-12T22:25:30.874Z,39.68
2023-03-12T22:26:32.456Z,41.17
2023-03-12T22:27:34.067Z,39.23
2023-03-12T22:28:36.201Z,39.12
2023-03-12T22:29:37.796Z,40.23
2023-03-12T22:30:39.377Z,40.12
2023-03-12T22:31:41.026Z,38.18
2023-03-12T22:32:42.646Z,38.75
2023-03-12T22:33:44.793Z,39.25
2023-03-12T22:34:46.382Z,37.58
2023-03-12T22:35:48.882Z,38.17
2023-03-12T22:36:50.542Z,37.15
2023-03-12T22:37:52.183Z,38.08
2023-03-12T22:38:53.878Z,39.00
2023-03-12T22:39:55.479Z,38.00
2023-03-12T22:40:57.036Z,36.22
2023-03-12T22:41:58.625Z,35.12
2023-03-12T22:43:00.361Z,36.07
2023-03-12T22:44:05.600Z,34.85
2023-03-12T22:45:08.096Z,33.45
2023-03-12T22:46:09.771Z,34.15
2023-03-12T22:47:11.436Z,36.27
2023-03-12T22:48:13.058Z,34.53
2023-03-12T22:49:15.032Z,35.83
2023-03-12T22:50:16.763Z,34.38
2023-03-12T22:51:18.823Z,28.83
2023-03-12T22:52:20.457Z,24.98
2023-03-12T22:53:22.604Z,24.32
2023-03-12T22:54:24.157Z,23.98
2023-03-12T22:55:26.143Z,27.22
2023-03-12T22:56:27.836Z,28.48
2023-03-12T22:57:29.467Z,25.78
2023-03-12T22:58:31.286Z,26.20
2023-03-12T22:59:32.876Z,22.52
2023-03-12T23:00:34.482Z,25.43
2023-03-12T23:01:36.116Z,30.02
2023-03-12T23:02:37.746Z,32.12
2023-03-12T23:03:42.021Z,34.33
2023-03-12T23:04:43.839Z,33.73
2023-03-12T23:05:45.598Z,37.55
2023-03-12T23:06:47.214Z,40.20
2023-03-12T23:07:49.053Z,42.43
2023-03-12T23:08:51.666Z,38.02
2023-03-12T23:09:53.255Z,30.77
2023-03-12T23:10:57.658Z,27.45
2023-03-12T23:11:59.249Z,28.07
2023-03-12T23:13:00.931Z,27.57
2023-03-12T23:14:02.733Z,27.23
2023-03-12T23:15:04.612Z,26.85
2023-03-12T23:16:09.604Z,26.63
2023-03-12T23:17:11.264Z,25.77
2023-03-12T23:18:12.905Z,24.53
2023-03-12T23:19:14.591Z,27.88
2023-03-12T23:20:16.357Z,37.03
2023-03-12T23:21:20.914Z,38.43
2023-03-12T23:22:22.548Z,33.47
2023-03-12T23:23:24.223Z,31.00
2023-03-12T23:24:26.006Z,29.27
2023-03-12T23:25:27.558Z,25.45
2023-03-12T23:26:29.321Z,25.43
2023-03-12T23:27:31.537Z,25.77
2023-03-12T23:28:33.404Z,25.33
2023-03-12T23:29:35.772Z,25.07
2023-03-12T23:30:37.394Z,26.67
2023-03-12T23:31:39.168Z,26.42
2023-03-12T23:32:40.823Z,25.63
2023-03-12T23:33:43.090Z,24.72
2023-03-12T23:34:45.167Z,27.43
2023-03-12T23:36:02.066Z,28.58
2023-03-12T23:37:03.942Z,27.65
2023-03-12T23:38:05.515Z,25.78
2023-03-12T23:39:07.083Z,27.12
2023-03-12T23:40:09.469Z,25.48
2023-03-12T23:41:21.296Z,26.30
2023-03-12T23:42:22.949Z,25.63
2023-03-12T23:43:24.546Z,25.55
2023-03-12T23:44:26.241Z,24.50
2023-03-12T23:45:27.918Z,21.65
2023-03-12T23:46:30.016Z,21.90
2023-03-12T23:47:31.635Z,21.42
2023-03-12T23:48:34.497Z,21.30
2023-03-12T23:49:36.089Z,19.55
2023-03-12T23:50:37.691Z,22.57
2023-03-12T23:51:40.057Z,26.63
2023-03-12T23:52:41.621Z,24.30
2023-03-12T23:53:46.186Z,22.50
2023-03-12T23:54:47.832Z,18.67
2023-03-12T23:56:00.404Z,24.13
2023-03-12T23:57:01.998Z,24.92
2023-03-12T23:58:03.590Z,21.93
2023-03-12T23:59:07.189Z,20.47
